East Islip, New York
Current Conditions -  °F | °C
As of 5:56 AM on Thursday 23 Oct 2014 (Local Time) from KISP Reporting Station
Light Rain Light Rain  
Wind Chill: 51°   Ceiling: 5500
Heat Index: 51°   Visibility: 7mi
Dew Point: 48°   Wind: 18mph
Humidity: 89%   Direction: 360°N
Pressure: 29.63"   Gusts: NA
Location:  40.73°N, 73.19°W
Report Text: KISP 230956Z 36016KT 7SM -RA SCT015 BKN055 OVC070 11/09 A2963 RMK AO2 PK WND 01031/0900 SLP033 FIRST AUGMENTED OBSERVATION P0016 T01060089
Loading
Personal Weather Stations






























Interactive Weather Map New forecast layout! Learn more

10-Day Weather Forecast

Advertisements
Track Severe Weather on mobile